createdAt,value
2017-03-13T00:00:15.510Z,70.78
2017-03-13T00:00:56.076Z,70.68
2017-03-13T00:01:36.695Z,70.87
2017-03-13T00:02:17.312Z,70.58
2017-03-13T00:02:57.910Z,70.78
2017-03-13T00:03:38.487Z,70.87
2017-03-13T00:04:19.083Z,70.78
2017-03-13T00:04:59.685Z,70.87
2017-03-13T00:05:40.282Z,70.78
2017-03-13T00:06:20.853Z,70.58
2017-03-13T00:07:01.434Z,70.97
2017-03-13T00:07:42.026Z,70.97
2017-03-13T00:08:22.635Z,70.87
2017-03-13T00:09:03.231Z,70.97
2017-03-13T00:09:43.797Z,71.06
2017-03-13T00:10:24.370Z,71.25
2017-03-13T00:11:04.937Z,71.25
2017-03-13T00:11:45.530Z,71.15
2017-03-13T00:12:26.099Z,71.15
2017-03-13T00:13:06.692Z,71.25
2017-03-13T00:13:47.300Z,71.34
2017-03-13T00:14:27.890Z,71.25
2017-03-13T00:15:08.480Z,71.15
2017-03-13T00:15:49.083Z,71.15
2017-03-13T00:16:29.672Z,71.25
2017-03-13T00:17:10.286Z,70.87
2017-03-13T00:17:50.841Z,70.97
2017-03-13T00:18:31.465Z,71.15
2017-03-13T00:19:12.064Z,70.97
2017-03-13T00:19:52.679Z,70.49
2017-03-13T00:20:33.271Z,70.58
2017-03-13T00:21:13.868Z,70.87
2017-03-13T00:21:54.478Z,71.15
2017-03-13T00:22:35.063Z,70.97
2017-03-13T00:23:15.689Z,70.78
2017-03-13T00:23:56.293Z,70.78
2017-03-13T00:24:36.880Z,70.78
2017-03-13T00:25:17.494Z,70.78
2017-03-13T00:25:58.054Z,70.78
2017-03-13T00:26:38.654Z,70.78
2017-03-13T00:27:19.247Z,70.87
2017-03-13T00:27:59.811Z,70.97
2017-03-13T00:28:40.388Z,71.25
2017-03-13T00:29:20.973Z,71.25
2017-03-13T00:30:01.611Z,71.34
2017-03-13T00:30:42.170Z,70.87
2017-03-13T00:31:22.752Z,70.97
2017-03-13T00:32:03.348Z,70.97
2017-03-13T00:32:43.982Z,70.87
2017-03-13T00:33:24.561Z,70.97
2017-03-13T00:34:05.179Z,71.15
2017-03-13T00:34:45.721Z,71.06
2017-03-13T00:35:26.308Z,70.97
2017-03-13T00:36:06.925Z,71.06
2017-03-13T00:36:47.528Z,71.15
2017-03-13T00:37:28.130Z,71.15
2017-03-13T00:38:08.739Z,71.25
2017-03-13T00:38:49.333Z,71.15
2017-03-13T00:39:29.908Z,71.25
2017-03-13T00:40:10.486Z,71.06
2017-03-13T00:40:51.060Z,71.06
2017-03-13T00:41:31.642Z,71.34
2017-03-13T00:42:12.231Z,71.25
2017-03-13T00:42:52.815Z,71.44
2017-03-13T00:43:33.391Z,71.44
2017-03-13T00:44:13.981Z,71.44
2017-03-13T00:44:54.555Z,71.72
2017-03-13T00:45:35.152Z,71.62
2017-03-13T00:46:15.744Z,71.72
2017-03-13T00:46:56.325Z,71.34
2017-03-13T00:47:36.908Z,71.53
2017-03-13T00:48:17.524Z,71.34
2017-03-13T00:48:58.123Z,71.53
2017-03-13T00:49:38.698Z,71.44
2017-03-13T00:50:19.265Z,71.72
2017-03-13T00:50:59.825Z,71.72
2017-03-13T00:51:40.393Z,71.72
2017-03-13T00:52:20.970Z,71.72
2017-03-13T00:53:01.554Z,72
2017-03-13T00:53:42.129Z,71.62
2017-03-13T00:54:22.696Z,71.62
2017-03-13T00:55:03.279Z,71.53
2017-03-13T00:55:43.869Z,71.62
2017-03-13T00:56:24.457Z,71.62
2017-03-13T00:57:05.062Z,71.62
2017-03-13T00:57:45.633Z,72
2017-03-13T00:58:26.233Z,72
2017-03-13T00:59:06.834Z,72
2017-03-13T00:59:47.425Z,72.19
2017-03-13T01:00:27.989Z,71.91
2017-03-13T01:01:08.590Z,71.91
2017-03-13T01:01:49.193Z,72
2017-03-13T01:02:29.824Z,72.19
2017-03-13T01:03:10.494Z,72.1
2017-03-13T01:03:51.106Z,72.19
2017-03-13T01:04:31.717Z,72.48
2017-03-13T01:05:12.327Z,72.1
2017-03-13T01:05:52.914Z,72.19
2017-03-13T01:06:33.512Z,72
2017-03-13T01:07:14.125Z,72.19
2017-03-13T01:07:54.706Z,72.29
2017-03-13T01:08:35.330Z,72.19
2017-03-13T01:09:15.945Z,72.19
2017-03-13T01:09:56.533Z,72
2017-03-13T01:10:37.145Z,72.1
2017-03-13T01:11:17.755Z,71.91
2017-03-13T01:11:58.311Z,72
2017-03-13T01:12:38.899Z,71.81
2017-03-13T01:13:19.494Z,71.91
2017-03-13T01:14:00.157Z,72.19
2017-03-13T01:14:40.826Z,71.91
2017-03-13T01:15:21.414Z,72
2017-03-13T01:16:01.995Z,72.48
2017-03-13T01:16:42.591Z,72.29
2017-03-13T01:17:23.172Z,72.29
2017-03-13T01:18:03.769Z,72.19
2017-03-13T01:18:44.369Z,72.48
2017-03-13T01:19:24.972Z,72.48
2017-03-13T01:20:05.575Z,72.48
2017-03-13T01:20:46.161Z,72.48
2017-03-13T01:21:26.782Z,72.48
2017-03-13T01:22:07.359Z,72.57
2017-03-13T01:22:47.951Z,72.57
2017-03-13T01:23:28.536Z,72.48
2017-03-13T01:24:09.121Z,72.48
2017-03-13T01:24:49.695Z,72.48
2017-03-13T01:25:30.289Z,72.1
2017-03-13T01:26:10.893Z,72.38
2017-03-13T01:26:51.479Z,72.48
2017-03-13T01:27:32.075Z,72.48
2017-03-13T01:28:12.692Z,72.38
2017-03-13T01:28:53.300Z,72.29
2017-03-13T01:29:33.867Z,72.48
2017-03-13T01:30:14.454Z,72.67
2017-03-13T01:30:55.057Z,72.67
2017-03-13T01:31:35.649Z,72.77
2017-03-13T01:32:16.249Z,72.67
2017-03-13T01:32:56.829Z,72.38
2017-03-13T01:33:37.457Z,72.77
2017-03-13T01:34:18.057Z,72.48
2017-03-13T01:34:58.655Z,72.48
2017-03-13T01:35:39.298Z,72.96
2017-03-13T01:36:19.921Z,72.38
2017-03-13T01:37:00.506Z,72.48
2017-03-13T01:37:41.123Z,72.57
2017-03-13T01:38:21.716Z,72.57
2017-03-13T01:39:02.318Z,72.48
2017-03-13T01:39:42.922Z,72.77
2017-03-13T01:40:23.517Z,72.19
2017-03-13T01:41:04.161Z,72.48
2017-03-13T01:41:44.737Z,71.81
2017-03-13T01:42:25.339Z,72
2017-03-13T01:43:05.931Z,72.19
2017-03-13T01:43:46.528Z,72.29
2017-03-13T01:44:27.140Z,72.48
2017-03-13T01:45:07.734Z,72.38
2017-03-13T01:45:48.316Z,72.77
2017-03-13T01:46:28.932Z,72.38
2017-03-13T01:47:09.532Z,72.77
2017-03-13T01:47:50.141Z,72.67
2017-03-13T01:48:30.737Z,72.19
2017-03-13T01:49:11.396Z,72.77
2017-03-13T01:49:51.942Z,72.96
2017-03-13T01:50:32.544Z,72.77
2017-03-13T01:51:13.148Z,72.77
2017-03-13T01:51:53.753Z,72.86
2017-03-13T01:52:34.354Z,72.67
2017-03-13T01:53:15.000Z,73.14
2017-03-13T01:53:55.663Z,72.96
2017-03-13T01:54:36.281Z,73.14
2017-03-13T01:55:16.845Z,73.24
2017-03-13T01:55:57.462Z,72.96
2017-03-13T01:56:38.191Z,73.14
2017-03-13T01:57:18.826Z,73.24
2017-03-13T01:57:59.422Z,73.14
2017-03-13T01:58:40.092Z,72.86
2017-03-13T01:59:20.722Z,73.14
2017-03-13T02:00:01.339Z,73.33
2017-03-13T02:00:41.945Z,73.14
2017-03-13T02:01:22.569Z,73.24
2017-03-13T02:02:03.134Z,73.05
2017-03-13T02:02:43.705Z,73.14
2017-03-13T02:03:24.292Z,73.24
2017-03-13T02:04:04.889Z,73.24
2017-03-13T02:04:45.504Z,73.14
2017-03-13T02:05:26.101Z,73.14
2017-03-13T02:06:06.696Z,73.14
2017-03-13T02:06:47.272Z,73.52
2017-03-13T02:07:27.899Z,73.43
2017-03-13T02:08:08.502Z,73.33
2017-03-13T02:08:49.104Z,73.24
2017-03-13T02:09:29.707Z,73.61
2017-03-13T02:10:10.316Z,73.99
2017-03-13T02:10:50.928Z,73.9
2017-03-13T02:11:31.591Z,73.52
2017-03-13T02:12:12.271Z,73.8
2017-03-13T02:12:52.882Z,73.43
2017-03-13T02:13:33.474Z,73.61
2017-03-13T02:14:14.077Z,73.14
2017-03-13T02:14:54.682Z,73.52
2017-03-13T02:15:35.329Z,73.24
2017-03-13T02:16:15.953Z,73.24
2017-03-13T02:16:56.534Z,73.24
2017-03-13T02:17:37.137Z,73.52
2017-03-13T02:18:17.731Z,73.33
2017-03-13T02:18:58.336Z,73.52
2017-03-13T02:19:38.978Z,73.24
2017-03-13T02:20:19.585Z,73.52
2017-03-13T02:21:00.188Z,73.61
2017-03-13T02:21:40.789Z,73.33
2017-03-13T02:22:21.411Z,72.96
2017-03-13T02:23:02.010Z,73.24
2017-03-13T02:23:42.604Z,73.24
2017-03-13T02:24:23.188Z,73.14
2017-03-13T02:25:03.782Z,73.14
2017-03-13T02:25:44.376Z,73.24
2017-03-13T02:26:24.962Z,73.14
2017-03-13T02:27:05.564Z,72.96
2017-03-13T02:27:46.149Z,73.05
2017-03-13T02:28:26.748Z,72.96
2017-03-13T02:29:07.352Z,72.96
2017-03-13T02:29:47.935Z,73.24
2017-03-13T02:30:28.522Z,73.61
2017-03-13T02:31:09.105Z,73.52
2017-03-13T02:31:49.697Z,73.52
2017-03-13T02:32:30.285Z,73.24
2017-03-13T02:33:10.876Z,73.43
2017-03-13T02:33:51.480Z,73.52
2017-03-13T02:34:32.071Z,73.52
2017-03-13T02:35:12.697Z,73.52
2017-03-13T02:35:53.276Z,73.52
2017-03-13T02:36:33.865Z,73.43
2017-03-13T02:37:14.455Z,73.71
2017-03-13T02:37:55.041Z,73.8
2017-03-13T02:38:35.652Z,73.61
2017-03-13T02:39:16.237Z,73.61
2017-03-13T02:39:56.816Z,73.61
2017-03-13T02:40:37.438Z,73.43
2017-03-13T02:41:18.019Z,73.61
2017-03-13T02:41:58.637Z,73.61
2017-03-13T02:42:39.227Z,73.61
2017-03-13T02:43:19.819Z,73.71
2017-03-13T02:44:00.416Z,73.61
2017-03-13T02:44:41.040Z,73.52
2017-03-13T02:45:21.642Z,73.61
2017-03-13T02:46:02.231Z,73.43
2017-03-13T02:46:42.816Z,73.61
2017-03-13T02:47:23.405Z,73.71
2017-03-13T02:48:04.012Z,73.43
2017-03-13T02:48:44.600Z,73.9
2017-03-13T02:49:25.228Z,73.9
2017-03-13T02:50:05.801Z,73.8
2017-03-13T02:50:46.402Z,73.8
2017-03-13T02:51:27.007Z,73.9
2017-03-13T02:52:07.599Z,73.52
2017-03-13T02:52:48.214Z,73.9
2017-03-13T02:53:28.818Z,73.99
2017-03-13T02:54:09.430Z,73.52
2017-03-13T02:54:50.031Z,74.09
2017-03-13T02:55:30.623Z,73.99
2017-03-13T02:56:11.238Z,74.09
2017-03-13T02:56:51.869Z,73.8
2017-03-13T02:57:32.500Z,73.71
2017-03-13T02:58:13.114Z,73.8
2017-03-13T02:58:53.799Z,73.61
2017-03-13T02:59:34.384Z,73.9
2017-03-13T03:00:14.986Z,73.61
2017-03-13T03:00:55.556Z,73.43
2017-03-13T03:01:36.173Z,73.71
2017-03-13T03:02:16.747Z,74.09
2017-03-13T03:02:57.357Z,73.52
2017-03-13T03:03:37.936Z,73.61
2017-03-13T03:04:18.496Z,73.61
2017-03-13T03:04:59.098Z,73.52
2017-03-13T03:05:39.679Z,73.61
2017-03-13T03:06:20.299Z,73.61
2017-03-13T03:07:00.960Z,73.71
2017-03-13T03:07:41.578Z,73.52
2017-03-13T03:08:22.154Z,73.52
2017-03-13T03:09:02.744Z,73.52
2017-03-13T03:09:43.402Z,73.99
2017-03-13T03:10:24.010Z,73.8
2017-03-13T03:11:04.597Z,74.18
2017-03-13T03:11:45.222Z,74.18
2017-03-13T03:12:25.809Z,73.99
2017-03-13T03:13:06.403Z,73.52
2017-03-13T03:13:47.019Z,73.43
2017-03-13T03:14:27.596Z,73.52
2017-03-13T03:15:08.187Z,73.61
2017-03-13T03:15:48.760Z,73.43
2017-03-13T03:16:29.343Z,74.05
2017-03-13T03:17:09.949Z,74.28
2017-03-13T03:17:50.516Z,73.96
2017-03-13T03:18:31.125Z,74.28
2017-03-13T03:19:11.723Z,74.18
2017-03-13T03:19:52.316Z,73.9
2017-03-13T03:20:32.922Z,74.09
2017-03-13T03:21:13.528Z,74.09
2017-03-13T03:21:54.123Z,74.18
2017-03-13T03:22:34.695Z,74.05
2017-03-13T03:23:15.297Z,73.99
2017-03-13T03:23:55.882Z,74.18
2017-03-13T03:24:36.507Z,73.71
2017-03-13T03:25:17.096Z,73.9
2017-03-13T03:25:57.686Z,73.9
2017-03-13T03:26:38.301Z,73.52
2017-03-13T03:27:18.907Z,73.33
2017-03-13T03:27:59.503Z,73.43
2017-03-13T03:28:40.105Z,73.49
2017-03-13T03:29:20.698Z,73.77
2017-03-13T03:30:01.281Z,73.39
2017-03-13T03:30:41.919Z,73.71
2017-03-13T03:31:22.515Z,73.39
2017-03-13T03:32:03.099Z,73.49
2017-03-13T03:32:43.693Z,73.61
2017-03-13T03:33:24.332Z,73.61
2017-03-13T03:34:04.922Z,73.71
2017-03-13T03:34:45.516Z,73.39
2017-03-13T03:35:26.125Z,73.49
2017-03-13T03:36:06.774Z,73.68
2017-03-13T03:36:47.366Z,73.86
2017-03-13T03:37:27.943Z,74.24
2017-03-13T03:38:08.526Z,74.05
2017-03-13T03:38:49.158Z,74.05
2017-03-13T03:39:29.778Z,73.86
2017-03-13T03:40:10.392Z,73.96
2017-03-13T03:40:50.978Z,74.05
2017-03-13T03:41:31.638Z,74.05
2017-03-13T03:42:12.251Z,73.96
2017-03-13T03:42:52.836Z,73.86
2017-03-13T03:43:33.438Z,73.96
2017-03-13T03:44:14.003Z,74.05
2017-03-13T03:44:54.581Z,74.05
2017-03-13T03:45:35.161Z,73.86
2017-03-13T03:46:15.799Z,73.96
2017-03-13T03:46:56.418Z,74.33
2017-03-13T03:47:37.003Z,74.33
2017-03-13T03:48:17.629Z,74.52
2017-03-13T03:48:58.230Z,74.43
2017-03-13T03:49:38.828Z,74.33
2017-03-13T03:50:19.411Z,74.43
2017-03-13T03:51:00.069Z,74.43
2017-03-13T03:51:40.615Z,74.9
2017-03-13T03:52:21.221Z,74.71
2017-03-13T03:53:01.814Z,74.81
2017-03-13T03:53:42.432Z,74.81
2017-03-13T03:54:23.026Z,74.71
2017-03-13T03:55:03.636Z,74.81
2017-03-13T03:55:44.232Z,74.62
2017-03-13T03:56:24.821Z,74.81
2017-03-13T03:57:05.479Z,74.81
2017-03-13T03:57:46.063Z,75.28
2017-03-13T03:58:26.660Z,75
2017-03-13T03:59:07.271Z,75.19
2017-03-13T03:59:47.849Z,75.57
2017-03-13T04:00:28.457Z,75.28
2017-03-13T04:01:09.048Z,75.47
2017-03-13T04:01:49.645Z,75.66
2017-03-13T04:02:30.234Z,75.38
2017-03-13T04:03:10.815Z,75.38
2017-03-13T04:03:51.431Z,75.19
2017-03-13T04:04:32.016Z,75.28
2017-03-13T04:05:12.622Z,75.38
2017-03-13T04:05:53.186Z,75.19
2017-03-13T04:06:33.804Z,75.19
2017-03-13T04:07:14.390Z,75.47
2017-03-13T04:07:55.002Z,75.57
2017-03-13T04:08:35.598Z,75.57
2017-03-13T04:09:16.175Z,75.66
2017-03-13T04:09:56.750Z,75.47
2017-03-13T04:10:37.341Z,75.95
2017-03-13T04:11:17.957Z,75.85
2017-03-13T04:11:58.547Z,75.66
2017-03-13T04:12:39.131Z,75.57
2017-03-13T04:13:19.733Z,75.76
2017-03-13T04:14:00.306Z,76.23
2017-03-13T04:14:40.907Z,76.04
2017-03-13T04:15:21.506Z,76.32
2017-03-13T04:16:02.115Z,76.32
2017-03-13T04:16:42.719Z,76.23
2017-03-13T04:17:23.294Z,76.14
2017-03-13T04:18:03.872Z,75.95
2017-03-13T04:18:44.514Z,76.14
2017-03-13T04:19:25.137Z,75.95
2017-03-13T04:20:05.804Z,75.95
2017-03-13T04:20:46.384Z,76.04
2017-03-13T04:21:26.995Z,75.76
2017-03-13T04:22:07.583Z,76.14
2017-03-13T04:22:48.182Z,76.23
2017-03-13T04:23:28.798Z,75.66
2017-03-13T04:24:09.391Z,76.23
2017-03-13T04:24:49.991Z,76.32
2017-03-13T04:25:30.567Z,75.95
2017-03-13T04:26:11.133Z,75.95
2017-03-13T04:26:51.746Z,75.95
2017-03-13T04:27:32.329Z,76.42
2017-03-13T04:28:12.956Z,76.42
2017-03-13T04:28:53.571Z,76.32
2017-03-13T04:29:34.231Z,76.51
2017-03-13T04:30:14.844Z,76.42
2017-03-13T04:30:55.417Z,76.51
2017-03-13T04:31:36.009Z,76.61
2017-03-13T04:32:16.601Z,76.61
2017-03-13T04:32:57.178Z,76.61
2017-03-13T04:33:37.840Z,76.32
2017-03-13T04:34:18.480Z,76.42
2017-03-13T04:34:59.080Z,75.85
2017-03-13T04:35:39.713Z,75.95
2017-03-13T04:36:20.320Z,75.95
2017-03-13T04:37:00.921Z,76.23
2017-03-13T04:37:41.521Z,76.23
2017-03-13T04:38:22.168Z,76.23
2017-03-13T04:39:02.721Z,76.32
2017-03-13T04:39:43.307Z,76.23
2017-03-13T04:40:23.924Z,76.14
2017-03-13T04:41:04.538Z,76.23
2017-03-13T04:41:45.129Z,76.32
2017-03-13T04:42:25.767Z,76.23
2017-03-13T04:43:06.373Z,76.32
2017-03-13T04:43:46.983Z,76.42
2017-03-13T04:44:27.601Z,76.14
2017-03-13T04:45:08.183Z,76.14
2017-03-13T04:45:48.803Z,75.95
2017-03-13T04:46:29.389Z,76.04
2017-03-13T04:47:10.012Z,75.95
2017-03-13T04:47:50.636Z,76.14
2017-03-13T04:48:31.248Z,76.14
2017-03-13T04:49:11.878Z,76.23
2017-03-13T04:49:52.507Z,75.47
2017-03-13T04:50:33.108Z,75.66
2017-03-13T04:51:13.707Z,75.76
2017-03-13T04:51:54.304Z,75.57
2017-03-13T04:52:34.896Z,75.66
2017-03-13T04:53:15.460Z,75.85
2017-03-13T04:53:56.033Z,75.85
2017-03-13T04:54:36.599Z,75.85
2017-03-13T04:55:17.179Z,75.85
2017-03-13T04:55:57.754Z,75.66
2017-03-13T04:56:38.338Z,75.76
2017-03-13T04:57:18.914Z,75.57
2017-03-13T04:57:59.507Z,75.57
2017-03-13T04:58:40.068Z,75.57
2017-03-13T04:59:20.648Z,75.38
2017-03-13T05:00:01.219Z,75.38
2017-03-13T05:00:41.792Z,75.38
2017-03-13T05:01:22.371Z,75.38
2017-03-13T05:02:02.971Z,75.38
2017-03-13T05:02:43.552Z,75.57
2017-03-13T05:03:24.135Z,75.76
2017-03-13T05:04:04.726Z,75.95
2017-03-13T05:04:45.297Z,75.95
2017-03-13T05:05:25.887Z,75.76
2017-03-13T05:06:06.455Z,75.76
2017-03-13T05:06:47.017Z,75.76
2017-03-13T05:07:27.583Z,75.66
2017-03-13T05:08:08.165Z,75.66
2017-03-13T05:08:48.737Z,75.85
2017-03-13T05:09:29.310Z,75.66
2017-03-13T05:10:09.897Z,75.57
2017-03-13T05:10:50.499Z,75.66
2017-03-13T05:11:31.090Z,75.76
2017-03-13T05:12:11.670Z,75.85
2017-03-13T05:12:52.255Z,75.66
2017-03-13T05:13:32.857Z,75.66
2017-03-13T05:14:13.422Z,75.76
2017-03-13T05:14:53.995Z,75.95
2017-03-13T05:15:34.574Z,75.95
2017-03-13T05:16:15.159Z,76.32
2017-03-13T05:16:55.802Z,76.32
2017-03-13T05:17:36.366Z,75.57
2017-03-13T05:18:16.971Z,76.32
2017-03-13T05:18:57.579Z,75.47
2017-03-13T05:19:38.191Z,75.76
2017-03-13T05:20:18.776Z,75.95
2017-03-13T05:20:59.356Z,75.47
2017-03-13T05:21:41.716Z,75.66
2017-03-13T05:22:22.293Z,75.38
2017-03-13T05:23:02.865Z,75.66
2017-03-13T05:23:43.433Z,75.76
2017-03-13T05:24:24.022Z,75.66
2017-03-13T05:25:04.586Z,75.76
2017-03-13T05:25:45.191Z,75.66
2017-03-13T05:26:25.771Z,75.76
2017-03-13T05:27:06.369Z,75.66
2017-03-13T05:27:46.955Z,75.57
2017-03-13T05:28:27.552Z,75.57
2017-03-13T05:29:08.164Z,75.19
2017-03-13T05:29:48.717Z,75.38
2017-03-13T05:30:29.297Z,75.38
2017-03-13T05:31:10.487Z,75.38
2017-03-13T05:31:51.061Z,75.57
2017-03-13T05:32:31.625Z,75.57
2017-03-13T05:33:12.248Z,75.47
2017-03-13T05:33:52.824Z,75.66
2017-03-13T05:34:33.394Z,74.9
2017-03-13T05:35:13.967Z,75.47
2017-03-13T05:35:54.544Z,75.66
2017-03-13T05:36:35.138Z,75.19
2017-03-13T05:37:15.688Z,74.71
2017-03-13T05:37:56.280Z,74.71
2017-03-13T05:38:36.881Z,74.71
2017-03-13T05:39:17.485Z,74.9
2017-03-13T05:39:58.092Z,75.47
2017-03-13T05:40:38.677Z,75.47
2017-03-13T05:41:19.268Z,75.57
2017-03-13T05:41:59.926Z,75.19
2017-03-13T05:42:40.476Z,75.38
2017-03-13T05:43:21.098Z,75.28
2017-03-13T05:44:01.665Z,75.19
2017-03-13T05:44:42.262Z,75.57
2017-03-13T05:45:22.850Z,75.47
2017-03-13T05:46:03.431Z,75.38
2017-03-13T05:46:44.018Z,75.66
2017-03-13T05:47:24.632Z,75.38
2017-03-13T05:48:05.221Z,75.19
2017-03-13T05:48:45.823Z,75.28
2017-03-13T05:49:26.392Z,75.28
2017-03-13T05:50:06.973Z,75.38
2017-03-13T05:50:47.568Z,75.47
2017-03-13T05:51:28.156Z,75.66
2017-03-13T05:52:08.718Z,75.57
2017-03-13T05:52:49.293Z,75.57
2017-03-13T05:53:29.891Z,75.47
2017-03-13T05:54:10.492Z,75.38
2017-03-13T05:54:51.081Z,75.57
2017-03-13T05:55:31.670Z,75.38
2017-03-13T05:59:16.670Z,75.47
2017-03-13T05:59:57.268Z,74.81
2017-03-13T06:00:37.875Z,74.9
2017-03-13T06:01:18.487Z,74.71
2017-03-13T06:01:59.086Z,74.33
2017-03-13T06:02:39.713Z,74.33
2017-03-13T06:03:20.284Z,74.33
2017-03-13T06:04:00.878Z,74.43
2017-03-13T06:04:41.456Z,74.62
2017-03-13T06:05:22.086Z,74.81
2017-03-13T06:06:02.651Z,74.81
2017-03-13T06:06:43.262Z,74.9
2017-03-13T06:07:23.853Z,74.71
2017-03-13T06:08:04.416Z,74.9
2017-03-13T06:08:45.005Z,74.71
2017-03-13T06:09:25.568Z,74.71
2017-03-13T06:10:06.154Z,74.81
2017-03-13T06:10:46.778Z,74.81
2017-03-13T06:11:27.362Z,75.09
2017-03-13T06:12:07.964Z,75.09
2017-03-13T06:12:48.595Z,74.71
2017-03-13T06:13:29.174Z,74.9
2017-03-13T06:14:09.755Z,75.09
2017-03-13T06:14:50.332Z,75.47
2017-03-13T06:15:30.933Z,75.47
2017-03-13T06:16:11.506Z,75.47
2017-03-13T06:16:52.080Z,75.47
2017-03-13T06:17:32.649Z,75.47
2017-03-13T06:18:13.240Z,75.47
2017-03-13T06:18:53.829Z,75.28
2017-03-13T06:19:34.433Z,75.28
2017-03-13T06:20:15.022Z,75.66
2017-03-13T06:20:55.637Z,74.9
2017-03-13T06:21:36.216Z,75.19
2017-03-13T06:22:16.826Z,74.52
2017-03-13T06:22:57.413Z,75.09
2017-03-13T06:23:37.991Z,74.9
2017-03-13T06:24:18.572Z,75
2017-03-13T06:24:59.158Z,75.09
2017-03-13T06:25:39.748Z,74.81
2017-03-13T06:26:20.348Z,74.81
2017-03-13T06:27:00.926Z,74.81
2017-03-13T06:27:41.504Z,75.28
2017-03-13T06:28:22.119Z,75.19
2017-03-13T06:29:02.715Z,75.09
2017-03-13T06:29:43.297Z,75
2017-03-13T06:30:23.928Z,75.19
2017-03-13T06:31:04.532Z,74.81
2017-03-13T06:31:45.101Z,74.81
2017-03-13T06:32:25.785Z,74.71
2017-03-13T06:33:06.355Z,75.19
2017-03-13T06:33:47.001Z,75
2017-03-13T06:34:27.598Z,74.81
2017-03-13T06:35:08.196Z,74.71
2017-03-13T06:35:48.883Z,74.81
2017-03-13T06:36:29.471Z,75
2017-03-13T06:37:10.047Z,74.62
2017-03-13T06:37:50.656Z,74.9
2017-03-13T06:38:31.264Z,74.81
2017-03-13T06:39:11.902Z,74.81
2017-03-13T06:39:52.515Z,74.81
2017-03-13T06:40:33.142Z,74.62
2017-03-13T06:41:13.719Z,74.71
2017-03-13T06:41:54.319Z,74.9
2017-03-13T06:42:34.898Z,74.95
2017-03-13T06:43:15.483Z,74.52
2017-03-13T06:43:56.064Z,77.03
2017-03-13T06:44:36.646Z,81.57
2017-03-13T06:45:17.270Z,83.94
2017-03-13T06:45:57.881Z,84.04
2017-03-13T06:46:38.540Z,82.28
2017-03-13T06:47:19.141Z,82.75
2017-03-13T06:47:59.750Z,82.18
2017-03-13T06:48:40.308Z,82.47
2017-03-13T06:49:20.878Z,80.99
2017-03-13T06:50:01.446Z,76.25
2017-03-13T06:50:42.034Z,71.8
2017-03-13T06:51:22.625Z,71.22
2017-03-13T06:52:03.194Z,70.37
2017-03-13T06:52:43.770Z,69.61
2017-03-13T06:53:24.397Z,69.01
2017-03-13T06:54:04.996Z,69.57
2017-03-13T06:54:45.585Z,69.77
2017-03-13T06:55:26.222Z,69.86
2017-03-13T06:56:06.839Z,70.43
2017-03-13T06:56:47.421Z,70.62
2017-03-13T06:57:28.034Z,71.09
2017-03-13T06:58:08.998Z,70.72
2017-03-13T06:58:49.609Z,70.9
2017-03-13T06:59:30.216Z,71.09
2017-03-13T07:00:10.806Z,71.76
2017-03-13T07:00:51.375Z,72
2017-03-13T07:01:31.948Z,71.91
2017-03-13T07:02:12.556Z,72.19
2017-03-13T07:02:53.144Z,71.91
2017-03-13T07:03:33.759Z,72.29
2017-03-13T07:04:14.347Z,72
2017-03-13T07:04:54.946Z,72.19
2017-03-13T07:05:35.616Z,72.38
2017-03-13T07:06:16.195Z,72
2017-03-13T07:06:56.829Z,71.91
2017-03-13T07:07:37.458Z,72.1
2017-03-13T07:08:18.030Z,72.29
2017-03-13T07:08:58.707Z,72.29
2017-03-13T07:09:39.279Z,72.38
2017-03-13T07:10:19.871Z,72.38
2017-03-13T07:11:00.888Z,72.48
2017-03-13T07:11:41.475Z,72.38
2017-03-13T07:12:22.095Z,72
2017-03-13T07:13:02.660Z,72.48
2017-03-13T07:13:43.250Z,72.96
2017-03-13T07:14:23.850Z,72.48
2017-03-13T07:15:04.537Z,72.57
2017-03-13T07:15:45.157Z,72.57
2017-03-13T07:16:25.783Z,72.48
2017-03-13T07:17:06.365Z,72.48
2017-03-13T07:17:46.976Z,72.48
2017-03-13T07:18:27.553Z,72.57
2017-03-13T07:19:08.172Z,72.29
2017-03-13T07:19:48.785Z,72.38
2017-03-13T07:20:29.420Z,72.57
2017-03-13T07:21:10.031Z,72.48
2017-03-13T07:21:50.663Z,72.48
2017-03-13T07:22:31.244Z,72.48
2017-03-13T07:23:11.857Z,72.19
2017-03-13T07:23:52.441Z,72.57
2017-03-13T07:24:33.049Z,72.48
2017-03-13T07:25:13.623Z,72.67
2017-03-13T07:25:54.209Z,72.77
2017-03-13T07:26:34.787Z,72.48
2017-03-13T07:27:15.413Z,72.96
2017-03-13T07:27:56.008Z,72.29
2017-03-13T07:28:36.615Z,72.19
2017-03-13T07:29:17.192Z,72.67
2017-03-13T07:29:57.786Z,72.71
2017-03-13T07:30:38.397Z,72.14
2017-03-13T07:31:19.017Z,72.23
2017-03-13T07:31:59.614Z,72.14
2017-03-13T07:32:40.202Z,72.14
2017-03-13T07:33:20.775Z,71.95
2017-03-13T07:34:01.371Z,72.33
2017-03-13T07:34:41.961Z,72.04
2017-03-13T07:35:22.600Z,71.57
2017-03-13T07:36:03.216Z,71.28
2017-03-13T07:36:43.784Z,70.84
2017-03-13T07:37:24.393Z,70.47
2017-03-13T07:38:05.012Z,69.8
2017-03-13T07:38:45.635Z,69.13
2017-03-13T07:39:26.214Z,68.57
2017-03-13T07:40:06.835Z,67.9
2017-03-13T07:40:47.453Z,67.43
2017-03-13T07:41:28.092Z,67.05
2017-03-13T07:42:08.710Z,66.96
2017-03-13T07:42:49.296Z,67.05
2017-03-13T07:43:29.891Z,67.18
2017-03-13T07:44:10.482Z,66.71
2017-03-13T07:44:51.065Z,66.89
2017-03-13T07:45:31.669Z,66.8
2017-03-13T07:46:12.236Z,66.89
2017-03-13T07:46:52.817Z,66.14
2017-03-13T07:47:33.405Z,65.85
2017-03-13T07:48:13.992Z,65.28
2017-03-13T07:48:54.582Z,64.9
2017-03-13T07:49:35.173Z,64.46
2017-03-13T07:50:15.782Z,64.46
2017-03-13T07:50:56.402Z,64.08
2017-03-13T07:51:37.013Z,64.08
2017-03-13T07:52:17.619Z,64.37
2017-03-13T07:52:58.253Z,63.79
2017-03-13T07:53:38.845Z,63.98
2017-03-13T07:54:19.433Z,63.6
2017-03-13T07:55:00.025Z,63.6
2017-03-13T07:55:40.606Z,63.42
2017-03-13T07:56:21.208Z,63.13
2017-03-13T07:57:01.808Z,63.23
2017-03-13T07:57:42.410Z,64.08
2017-03-13T07:58:22.989Z,63.89
2017-03-13T07:59:03.583Z,64.08
2017-03-13T07:59:44.211Z,63.98
2017-03-13T08:00:24.817Z,63.7
2017-03-13T08:01:05.396Z,63.13
2017-03-13T08:01:45.984Z,62.75
2017-03-13T08:02:26.558Z,62.66
2017-03-13T08:03:07.137Z,62.85
2017-03-13T08:03:47.710Z,63.13
2017-03-13T08:04:29.155Z,63.32
2017-03-13T08:05:09.728Z,63.6
2017-03-13T08:05:50.317Z,63.42
2017-03-13T08:06:30.902Z,63.32
2017-03-13T08:07:11.469Z,62.94
2017-03-13T08:07:52.052Z,63.04
2017-03-13T08:08:32.632Z,62.18
2017-03-13T08:09:13.220Z,62.85
2017-03-13T08:09:53.797Z,63.6
2017-03-13T08:10:34.425Z,63.79
2017-03-13T08:11:15.034Z,63.51
2017-03-13T08:11:55.608Z,63.7
2017-03-13T08:12:36.210Z,63.32
2017-03-13T08:13:16.827Z,62.85
2017-03-13T08:13:57.435Z,62.69
2017-03-13T08:14:38.025Z,62.08
2017-03-13T08:15:18.631Z,62.08
2017-03-13T08:15:59.253Z,62.56
2017-03-13T08:16:39.837Z,62.85
2017-03-13T08:17:20.447Z,62.08
2017-03-13T08:18:01.047Z,62.94
2017-03-13T08:18:41.684Z,63.23
2017-03-13T08:19:22.245Z,63.6
2017-03-13T08:20:02.830Z,63.89
2017-03-13T08:20:43.412Z,63.98
2017-03-13T08:21:24.020Z,64.46
2017-03-13T08:22:04.608Z,63.89
2017-03-13T08:22:45.169Z,63.6
2017-03-13T08:23:25.764Z,63.98
2017-03-13T08:24:06.374Z,63.79
2017-03-13T08:24:47.647Z,63.7
2017-03-13T08:25:28.235Z,64.14
2017-03-13T08:26:08.836Z,64.24
2017-03-13T08:26:49.424Z,64.81
2017-03-13T08:27:30.001Z,64.9
2017-03-13T08:28:10.573Z,65.37
2017-03-13T08:28:51.141Z,65.85
2017-03-13T08:29:31.729Z,65.66
2017-03-13T08:30:12.356Z,65.75
2017-03-13T08:30:52.944Z,65.66
2017-03-13T08:31:33.545Z,65.66
2017-03-13T08:32:14.132Z,66.14
2017-03-13T08:32:54.718Z,66.04
2017-03-13T08:33:35.307Z,66.14
2017-03-13T08:34:15.894Z,66.71
2017-03-13T08:34:56.477Z,66.89
2017-03-13T08:35:37.125Z,67.27
2017-03-13T08:36:17.724Z,66.71
2017-03-13T08:36:58.320Z,66.04
2017-03-13T08:37:38.924Z,65.95
2017-03-13T08:38:19.509Z,65.95
2017-03-13T08:39:00.124Z,66.14
2017-03-13T08:39:40.703Z,66.33
2017-03-13T08:40:21.284Z,66.71
2017-03-13T08:41:01.855Z,66.89
2017-03-13T08:41:42.448Z,66.99
2017-03-13T08:42:23.044Z,66.89
2017-03-13T08:43:03.630Z,66.8
2017-03-13T08:43:44.249Z,67.08
2017-03-13T08:44:24.834Z,67.08
2017-03-13T08:45:05.430Z,66.89
2017-03-13T08:45:46.001Z,67.37
2017-03-13T08:46:26.611Z,67.75
2017-03-13T08:47:07.178Z,67.65
2017-03-13T08:47:47.757Z,67.65
2017-03-13T08:48:28.331Z,67.65